Time;durP1;ratioP1;P1;durP2;ratioP2;P2;SDS_P1;SDS_P2;PMS_P1;PMS_P2;Temp;Humidity;BMP_temperature;BMP_pressure;BME280_temperature;BME280_humidity;BME280_pressure;Samples;Min_cycle;Max_cycle;Signal;HPM_P1;HPM_P2
2022/07/11 00:02:22;;;;;;;7.07;2.10;;;16.20;99.90;;;;;;5048641;28;20247;-72
2022/07/11 00:04:49;;;;;;;6.10;1.93;;;16.00;99.90;;;;;;5039107;28;20204;-71
2022/07/11 00:07:16;;;;;;;6.07;1.87;;;16.00;99.90;;;;;;5038200;28;20647;-71
2022/07/11 00:09:43;;;;;;;3.40;1.50;;;15.90;99.90;;;;;;5028084;28;20259;-71
2022/07/11 00:12:11;;;;;;;3.37;1.20;;;15.70;99.90;;;;;;5027649;28;20216;-72
2022/07/11 00:14:39;;;;;;;3.07;1.40;;;15.70;99.90;;;;;;5028519;28;20219;-71
2022/07/11 00:17:07;;;;;;;5.33;1.50;;;15.70;99.90;;;;;;5028678;28;20224;-71
2022/07/11 00:19:36;;;;;;;5.77;1.50;;;15.60;99.90;;;;;;5028269;28;20235;-70
2022/07/11 00:22:03;;;;;;;7.10;1.47;;;15.60;99.90;;;;;;5028182;28;20224;-70
2022/07/11 00:24:30;;;;;;;3.83;1.40;;;15.70;99.90;;;;;;5042942;28;20204;-70
2022/07/11 00:26:57;;;;;;;4.47;1.30;;;15.60;99.90;;;;;;5048157;28;20211;-70
2022/07/11 00:29:24;;;;;;;4.23;1.37;;;15.50;99.90;;;;;;5051668;28;20199;-70
2022/07/11 00:31:51;;;;;;;5.93;1.50;;;15.50;99.90;;;;;;5045078;28;20304;-71
2022/07/11 00:34:21;;;;;;;3.73;1.40;;;15.50;99.90;;;;;;5027709;28;20658;-71
2022/07/11 00:36:49;;;;;;;3.83;1.40;;;15.50;99.90;;;;;;5047442;28;20973;-71
2022/07/11 00:39:16;;;;;;;3.87;1.37;;;15.40;99.90;;;;;;5047828;28;20219;-72
2022/07/11 00:41:43;;;;;;;4.40;1.47;;;15.40;99.90;;;;;;5045192;28;20205;-72
2022/07/11 00:44:09;;;;;;;3.77;1.63;;;15.40;99.90;;;;;;5027718;28;20208;-72
2022/07/11 00:46:36;;;;;;;3.87;1.60;;;15.30;99.90;;;;;;5027918;28;20204;-72
2022/07/11 00:49:04;;;;;;;3.03;1.33;;;15.30;99.90;;;;;;5027954;28;20212;-72
2022/07/11 00:51:32;;;;;;;5.13;2.00;;;15.30;99.90;;;;;;5030231;28;20212;-73
2022/07/11 00:54:01;;;;;;;4.50;1.80;;;15.20;99.90;;;;;;5036290;28;20212;-71
2022/07/11 00:56:30;;;;;;;6.20;1.57;;;15.20;99.90;;;;;;5027587;28;20225;-71
2022/07/11 00:58:58;;;;;;;3.50;1.27;;;15.10;99.90;;;;;;5027769;28;20201;-74
2022/07/11 01:01:25;;;;;;;3.93;1.60;;;15.00;99.90;;;;;;5044461;28;20208;-74
2022/07/11 01:03:52;;;;;;;4.43;1.47;;;14.90;99.90;;;;;;5027954;28;20235;-74
2022/07/11 01:06:19;;;;;;;5.63;1.40;;;14.90;99.90;;;;;;5027856;28;20206;-74
2022/07/11 01:08:46;;;;;;;4.03;1.37;;;14.90;99.90;;;;;;5027231;28;20688;-73
2022/07/11 01:11:15;;;;;;;3.90;1.57;;;14.90;99.90;;;;;;5027473;28;20212;-74
2022/07/11 01:13:43;;;;;;;6.43;1.87;;;15.10;99.90;;;;;;5042689;28;20674;-74
2022/07/11 01:16:12;;;;;;;4.77;1.57;;;15.10;99.90;;;;;;5027522;28;20849;-73
2022/07/11 01:18:39;;;;;;;3.00;1.50;;;15.00;99.90;;;;;;5027366;28;20263;-74
2022/07/11 01:21:21;;;;;;;4.93;1.63;;;14.90;99.90;;;;;;5027381;28;20274;-74
2022/07/11 01:23:51;;;;;;;4.87;1.40;;;14.90;99.90;;;;;;5034078;28;20230;-73
2022/07/11 01:26:19;;;;;;;8.37;2.13;;;14.80;99.90;;;;;;5051420;28;20196;-74
2022/07/11 01:28:46;;;;;;;3.10;1.40;;;14.70;99.90;;;;;;5050898;28;20219;-73
2022/07/11 01:31:13;;;;;;;4.97;1.47;;;14.60;99.90;;;;;;5065327;28;20246;-73
2022/07/11 01:33:40;;;;;;;6.50;1.83;;;14.70;99.90;;;;;;5033309;28;20196;-74
2022/07/11 01:36:09;;;;;;;6.43;1.57;;;14.60;99.90;;;;;;5037327;28;20204;-73
2022/07/11 01:38:37;;;;;;;3.30;1.40;;;14.50;99.90;;;;;;5051160;28;20212;-71
2022/07/11 01:41:08;;;;;;;5.23;1.33;;;14.60;99.90;;;;;;5051137;28;20231;-72
2022/07/11 01:43:35;;;;;;;6.93;2.03;;;14.80;99.90;;;;;;5034161;28;20240;-73
2022/07/11 01:46:04;;;;;;;8.10;1.90;;;14.80;99.90;;;;;;5033923;28;20204;-73
2022/07/11 01:48:31;;;;;;;4.83;1.70;;;14.80;99.90;;;;;;5050790;28;20210;-73
2022/07/11 01:50:57;;;;;;;4.37;1.40;;;14.90;99.90;;;;;;5050713;28;20208;-73
2022/07/11 01:53:25;;;;;;;5.43;1.63;;;14.90;99.90;;;;;;5050347;28;20211;-74
2022/07/11 01:55:52;;;;;;;4.53;1.83;;;14.80;99.90;;;;;;5050436;28;20709;-72
2022/07/11 01:58:20;;;;;;;5.83;1.30;;;14.90;99.90;;;;;;5037570;28;20212;-71
2022/07/11 02:00:47;;;;;;;3.33;1.90;;;14.90;99.90;;;;;;5030824;28;20213;-73
2022/07/11 02:03:13;;;;;;;2.87;1.57;;;14.80;99.90;;;;;;5030960;28;20238;-73
2022/07/11 02:05:40;;;;;;;5.93;1.80;;;14.60;99.90;;;;;;5030662;28;20219;-73
2022/07/11 02:08:14;;;;;;;3.73;1.40;;;14.50;99.90;;;;;;5030857;28;20209;-74
2022/07/11 02:10:44;;;;;;;5.47;1.70;;;14.50;99.90;;;;;;5030660;28;20201;-72
2022/07/11 02:13:13;;;;;;;9.50;1.90;;;14.40;99.90;;;;;;5042631;28;20188;-72
2022/07/11 02:15:42;;;;;;;5.83;1.77;;;14.50;99.90;;;;;;5050382;28;20208;-72
2022/07/11 02:18:10;;;;;;;4.17;1.60;;;14.60;99.90;;;;;;5050608;28;20215;-71
2022/07/11 02:20:37;;;;;;;4.40;1.87;;;14.60;99.90;;;;;;5050078;28;20208;-79
2022/07/11 02:23:04;;;;;;;4.27;1.70;;;14.60;99.90;;;;;;5039007;28;20239;-71
2022/07/11 02:25:31;;;;;;;3.43;1.33;;;14.60;99.90;;;;;;5034441;28;20742;-71
2022/07/11 02:27:59;;;;;;;5.50;1.13;;;14.50;99.90;;;;;;5047989;28;20220;-71
2022/07/11 02:30:26;;;;;;;4.47;1.40;;;14.50;99.90;;;;;;5047762;28;20622;-71
2022/07/11 02:32:55;;;;;;;6.20;1.67;;;14.50;99.90;;;;;;5047406;28;20199;-71
2022/07/11 02:35:23;;;;;;;5.20;1.60;;;14.50;99.90;;;;;;5046953;28;20563;-71
2022/07/11 02:37:50;;;;;;;4.33;1.50;;;14.40;99.90;;;;;;5034260;28;20740;-71
2022/07/11 02:40:17;;;;;;;7.07;1.87;;;14.30;99.90;;;;;;5027752;28;20679;-71
2022/07/11 02:42:45;;;;;;;3.60;1.87;;;14.20;99.90;;;;;;5034255;28;20238;-71
2022/07/11 02:45:12;;;;;;;5.27;1.70;;;14.10;99.90;;;;;;5047993;28;20291;-71
2022/07/11 02:47:39;;;;;;;4.60;1.50;;;13.90;99.90;;;;;;5047636;28;20236;-71
2022/07/11 02:50:11;;;;;;;3.97;1.37;;;13.80;99.90;;;;;;5047406;28;20252;-71
2022/07/11 02:52:38;;;;;;;3.33;1.43;;;13.80;99.90;;;;;;5047050;28;20722;-71
2022/07/11 02:55:07;;;;;;;5.10;1.63;;;13.90;99.90;;;;;;5030271;28;20239;-71
2022/07/11 02:57:33;;;;;;;8.60;1.70;;;13.80;99.90;;;;;;5028284;28;20263;-70
2022/07/11 03:00:01;;;;;;;3.73;1.40;;;13.80;99.90;;;;;;5028316;28;20211;-70
2022/07/11 03:02:27;;;;;;;4.00;1.57;;;13.70;99.90;;;;;;5032131;28;20569;-71
2022/07/11 03:04:54;;;;;;;3.10;1.40;;;13.70;99.90;;;;;;5037595;28;20204;-70
2022/07/11 03:07:22;;;;;;;2.93;1.40;;;13.80;99.90;;;;;;5039966;28;20319;-71
2022/07/11 03:09:49;;;;;;;4.27;1.20;;;13.80;99.90;;;;;;5047971;28;20212;-71
2022/07/11 03:12:16;;;;;;;1.93;1.30;;;13.80;99.90;;;;;;5048302;28;20219;-71
2022/07/11 03:14:43;;;;;;;4.67;1.60;;;13.90;99.90;;;;;;5048240;28;20208;-71
2022/07/11 03:17:09;;;;;;;3.80;1.60;;;13.70;99.90;;;;;;5048158;28;20441;-71
2022/07/11 03:19:36;;;;;;;4.83;1.70;;;13.60;99.90;;;;;;5048159;28;20208;-71
2022/07/11 03:22:04;;;;;;;10.20;1.90;;;13.60;99.90;;;;;;5047757;28;20730;-71
2022/07/11 03:24:32;;;;;;;5.23;1.70;;;13.50;99.90;;;;;;5048110;28;20228;-71
2022/07/11 03:26:58;;;;;;;4.30;1.63;;;13.50;99.90;;;;;;5049417;28;20208;-71
2022/07/11 03:29:25;;;;;;;3.60;1.90;;;13.40;99.90;;;;;;5054153;28;20200;-71
2022/07/11 03:31:52;;;;;;;7.70;1.80;;;13.30;99.90;;;;;;5068851;28;20235;-71
2022/07/11 03:34:19;;;;;;;7.00;1.70;;;13.40;99.90;;;;;;5069328;28;20212;-70
2022/07/11 03:36:47;;;;;;;3.80;1.60;;;13.40;99.90;;;;;;5064263;28;20211;-71
2022/07/11 03:39:14;;;;;;;3.17;1.60;;;13.50;99.90;;;;;;5049233;28;20235;-71
2022/07/11 03:41:42;;;;;;;7.97;1.87;;;13.50;99.90;;;;;;5048590;28;20696;-71
2022/07/11 03:44:09;;;;;;;5.60;1.80;;;13.30;99.90;;;;;;5048580;28;20228;-70
2022/07/11 03:46:36;;;;;;;4.43;1.57;;;13.30;99.90;;;;;;5048780;28;20205;-71
2022/07/11 03:49:03;;;;;;;6.33;1.70;;;13.20;99.90;;;;;;5048757;28;20274;-71
2022/07/11 03:51:30;;;;;;;6.20;1.77;;;13.00;99.90;;;;;;5029821;28;20212;-71
2022/07/11 03:53:57;;;;;;;3.10;1.53;;;12.80;99.90;;;;;;5040089;28;20216;-71
2022/07/11 03:56:24;;;;;;;5.90;1.50;;;12.90;99.90;;;;;;5048470;28;20235;-71
2022/07/11 03:58:52;;;;;;;4.53;1.90;;;12.80;99.90;;;;;;5048562;28;20208;-71
2022/07/11 04:01:19;;;;;;;2.43;1.50;;;12.80;99.90;;;;;;5048535;28;20211;-71
2022/07/11 04:03:46;;;;;;;6.13;1.90;;;12.70;99.90;;;;;;5048246;28;20239;-71
2022/07/11 04:06:13;;;;;;;6.07;1.90;;;12.80;99.90;;;;;;5048187;28;20204;-70
2022/07/11 04:08:40;;;;;;;7.07;1.90;;;12.80;99.90;;;;;;5048344;28;20215;-70
2022/07/11 04:11:07;;;;;;;5.27;1.90;;;13.00;99.90;;;;;;5048412;28;20208;-70
2022/07/11 04:13:34;;;;;;;4.57;2.00;;;12.90;99.90;;;;;;5047801;28;20731;-71
2022/07/11 04:16:07;;;;;;;6.20;1.87;;;13.00;99.90;;;;;;5048121;28;20212;-71
2022/07/11 04:18:34;;;;;;;5.43;2.00;;;13.00;99.90;;;;;;5047971;28;20188;-71
2022/07/11 04:21:01;;;;;;;5.83;1.73;;;13.00;99.90;;;;;;5033784;28;20216;-71
2022/07/11 04:23:27;;;;;;;8.07;1.80;;;12.90;99.90;;;;;;5035281;28;20232;-71
2022/07/11 04:25:54;;;;;;;7.40;2.20;;;12.90;99.90;;;;;;5047791;28;20212;-71
2022/07/11 04:28:21;;;;;;;4.73;1.50;;;12.80;99.90;;;;;;5047635;28;20215;-71
2022/07/11 04:30:48;;;;;;;5.70;2.03;;;12.80;99.90;;;;;;5064057;28;20235;-71
2022/07/11 04:33:16;;;;;;;6.70;1.87;;;12.80;99.90;;;;;;5067835;28;20781;-71
2022/07/11 04:35:43;;;;;;;4.63;2.07;;;12.80;99.90;;;;;;5056980;28;20211;-71
2022/07/11 04:38:09;;;;;;;6.73;2.03;;;12.80;99.90;;;;;;5031903;28;20251;-69
2022/07/11 04:40:36;;;;;;;3.93;1.47;;;12.80;99.90;;;;;;5027808;28;20289;-70
2022/07/11 04:43:04;;;;;;;3.07;1.53;;;12.80;99.90;;;;;;5027626;28;20682;-70
2022/07/11 04:45:31;;;;;;;5.53;2.00;;;12.90;99.90;;;;;;5036764;28;20204;-70
2022/07/11 04:47:59;;;;;;;3.27;1.70;;;12.90;99.90;;;;;;5027890;28;20205;-70
2022/07/11 04:50:27;;;;;;;4.70;1.60;;;13.00;99.90;;;;;;5027530;28;20209;-70
2022/07/11 04:52:54;;;;;;;6.23;1.87;;;13.00;99.90;;;;;;5029854;28;20685;-70
2022/07/11 04:55:20;;;;;;;4.43;1.73;;;12.90;99.90;;;;;;5047454;28;20228;-70
2022/07/11 04:57:48;;;;;;;3.70;2.00;;;12.90;99.90;;;;;;5046625;28;20204;-70
2022/07/11 05:00:15;;;;;;;6.77;1.90;;;12.80;99.90;;;;;;5047489;28;20212;-70
2022/07/11 05:02:42;;;;;;;3.33;1.80;;;12.90;99.90;;;;;;5047538;28;20208;-70
2022/07/11 05:05:09;;;;;;;3.10;1.93;;;12.90;99.90;;;;;;5047521;28;20774;-70
2022/07/11 05:07:37;;;;;;;4.43;1.70;;;12.90;99.90;;;;;;5044800;28;20208;-70
2022/07/11 05:10:05;;;;;;;6.50;2.13;;;13.00;99.90;;;;;;5043766;28;20205;-70
2022/07/11 05:12:32;;;;;;;4.90;2.10;;;13.10;99.90;;;;;;5047469;28;20208;-70
2022/07/11 05:14:59;;;;;;;7.10;1.87;;;13.10;99.90;;;;;;5047343;28;20208;-71
2022/07/11 05:17:26;;;;;;;8.33;2.30;;;13.20;99.90;;;;;;5047483;28;20545;-70
2022/07/11 05:19:53;;;;;;;4.47;1.90;;;13.20;99.90;;;;;;5047395;28;20208;-70
2022/07/11 05:22:19;;;;;;;4.63;1.80;;;13.20;99.90;;;;;;5047453;28;20560;-70
2022/07/11 05:24:48;;;;;;;4.67;1.73;;;13.30;99.90;;;;;;5029248;28;20235;-71
2022/07/11 05:27:14;;;;;;;4.33;2.10;;;13.30;99.90;;;;;;5027489;28;20219;-71
2022/07/11 05:29:41;;;;;;;3.87;1.87;;;13.40;99.90;;;;;;5034769;28;20288;-70
2022/07/11 05:32:08;;;;;;;4.47;1.80;;;13.40;99.90;;;;;;5047108;28;20244;-70
2022/07/11 05:34:35;;;;;;;7.03;2.33;;;13.40;99.90;;;;;;5047264;28;20208;-70
2022/07/11 05:37:02;;;;;;;4.83;2.00;;;13.50;99.90;;;;;;5047106;28;20204;-70
2022/07/11 05:39:29;;;;;;;4.60;2.07;;;13.60;99.90;;;;;;5047051;28;20211;-70
2022/07/11 05:41:57;;;;;;;4.93;2.00;;;13.60;99.90;;;;;;5036660;28;20217;-70
2022/07/11 05:44:24;;;;;;;4.93;2.30;;;13.70;99.90;;;;;;5026819;28;20245;-70
2022/07/11 05:46:50;;;;;;;6.03;2.20;;;13.70;99.90;;;;;;5031005;28;20209;-70
2022/07/11 05:49:17;;;;;;;4.43;2.00;;;13.80;99.90;;;;;;5047184;28;20299;-70
2022/07/11 05:51:44;;;;;;;6.07;2.00;;;13.90;99.90;;;;;;5046557;28;20580;-70
2022/07/11 05:54:11;;;;;;;3.60;1.93;;;13.90;99.90;;;;;;5033875;28;20209;-70
2022/07/11 05:56:38;;;;;;;7.70;1.83;;;13.90;99.90;;;;;;5037923;28;20721;-70
2022/07/11 05:59:06;;;;;;;5.47;2.00;;;14.00;99.90;;;;;;5046750;28;20212;-71
2022/07/11 06:01:32;;;;;;;5.97;1.93;;;14.10;99.90;;;;;;5047155;28;20208;-71
2022/07/11 06:04:00;;;;;;;6.33;2.30;;;14.20;99.90;;;;;;5047149;28;20288;-71
2022/07/11 06:06:27;;;;;;;5.57;2.00;;;14.20;99.90;;;;;;5046692;28;20204;-71
2022/07/11 06:08:54;;;;;;;5.13;1.80;;;14.20;99.90;;;;;;5047249;28;20215;-71
2022/07/11 06:11:21;;;;;;;8.13;1.90;;;14.20;99.90;;;;;;5049546;28;20208;-71
2022/07/11 06:13:49;;;;;;;8.33;2.63;;;14.20;99.90;;;;;;5050598;28;20231;-71
2022/07/11 06:16:18;;;;;;;3.90;1.90;;;14.30;99.90;;;;;;5050117;28;20204;-71
2022/07/11 06:18:45;;;;;;;4.27;1.77;;;14.30;99.90;;;;;;5050305;28;20204;-71
2022/07/11 06:21:12;;;;;;;5.60;2.00;;;14.30;99.90;;;;;;5050054;28;20208;-71
2022/07/11 06:23:40;;;;;;;4.73;1.90;;;14.30;99.90;;;;;;5050103;28;20219;-71
2022/07/11 06:26:07;;;;;;;5.60;1.93;;;14.30;99.90;;;;;;5050618;28;20211;-70
2022/07/11 06:28:33;;;;;;;5.07;1.80;;;14.30;99.90;;;;;;5050045;28;20550;-71
2022/07/11 06:31:00;;;;;;;3.60;1.80;;;14.40;99.90;;;;;;5049847;28;20262;-71
2022/07/11 06:33:28;;;;;;;8.80;3.07;;;14.50;99.90;;;;;;5050092;28;20208;-71
2022/07/11 06:35:55;;;;;;;6.10;2.20;;;14.50;99.90;;;;;;5049843;28;20212;-71
2022/07/11 06:38:22;;;;;;;6.20;2.27;;;14.60;99.90;;;;;;5046798;28;20212;-71
2022/07/11 06:40:49;;;;;;;5.63;2.23;;;14.70;99.90;;;;;;5030077;28;20213;-71
2022/07/11 06:43:16;;;;;;;5.43;1.70;;;14.70;99.90;;;;;;5029671;28;20213;-71
2022/07/11 06:45:42;;;;;;;7.73;2.40;;;14.70;99.90;;;;;;5030041;28;20236;-71
2022/07/11 06:48:10;;;;;;;3.97;1.70;;;14.80;99.90;;;;;;5030059;28;20216;-71
2022/07/11 06:50:38;;;;;;;7.37;2.17;;;14.80;99.90;;;;;;5029591;28;20209;-71
2022/07/11 06:53:05;;;;;;;9.03;2.00;;;14.90;99.90;;;;;;5033310;28;20212;-71
2022/07/11 06:55:32;;;;;;;5.40;1.93;;;15.00;99.90;;;;;;5049586;28;20235;-71
2022/07/11 06:57:59;;;;;;;8.80;2.00;;;15.10;99.90;;;;;;5049722;28;20210;-71
2022/07/11 07:00:27;;;;;;;5.60;1.90;;;15.10;99.90;;;;;;5049264;28;20207;-71
2022/07/11 07:02:56;;;;;;;3.40;1.80;;;15.20;99.90;;;;;;5049612;28;20207;-71
2022/07/11 07:05:23;;;;;;;7.50;1.90;;;15.20;99.90;;;;;;5049599;28;20239;-71
2022/07/11 07:07:51;;;;;;;6.10;2.10;;;15.30;99.90;;;;;;5049245;28;20200;-71
2022/07/11 07:10:18;;;;;;;6.03;2.07;;;15.40;99.90;;;;;;5049253;28;20204;-71
2022/07/11 07:12:45;;;;;;;7.03;2.50;;;15.40;99.90;;;;;;5049150;28;20204;-71
2022/07/11 07:15:12;;;;;;;7.50;2.20;;;15.50;99.90;;;;;;5049332;28;20223;-71
2022/07/11 07:17:39;;;;;;;8.73;2.43;;;15.50;99.90;;;;;;5048994;28;20208;-71
2022/07/11 07:20:10;;;;;;;6.43;2.50;;;15.60;99.90;;;;;;5048984;28;20212;-71
2022/07/11 07:22:37;;;;;;;7.13;2.20;;;15.70;99.90;;;;;;5048118;28;20192;-71
2022/07/11 07:25:07;;;;;;;8.53;2.20;;;15.70;99.90;;;;;;5049117;28;20259;-71
2022/07/11 07:27:34;;;;;;;5.83;2.03;;;15.80;99.90;;;;;;5048956;28;20193;-71
2022/07/11 07:30:00;;;;;;;4.80;1.90;;;15.90;99.90;;;;;;5048800;28;20293;-71
2022/07/11 07:32:27;;;;;;;10.77;2.10;;;16.00;99.90;;;;;;5048560;28;20251;-71
2022/07/11 07:34:54;;;;;;;6.87;2.50;;;15.90;99.90;;;;;;5043352;28;20208;-71
2022/07/11 07:37:21;;;;;;;9.00;2.20;;;15.90;99.90;;;;;;5038339;28;20215;-71
2022/07/11 07:39:47;;;;;;;5.80;2.00;;;16.00;99.90;;;;;;5048771;28;20199;-71
2022/07/11 07:42:16;;;;;;;6.17;2.00;;;16.00;99.90;;;;;;5049173;28;20204;-71
2022/07/11 07:44:42;;;;;;;6.60;2.30;;;16.10;99.90;;;;;;5048279;28;20259;-71
2022/07/11 07:47:09;;;;;;;7.10;2.27;;;16.10;99.90;;;;;;5048679;28;20216;-71
2022/07/11 07:49:36;;;;;;;7.87;2.27;;;16.20;99.90;;;;;;5048435;28;20666;-71
2022/07/11 07:52:03;;;;;;;4.10;1.90;;;16.20;99.90;;;;;;5048356;28;20670;-71
2022/07/11 07:54:30;;;;;;;9.13;2.27;;;16.10;99.90;;;;;;5031770;28;20582;-71
2022/07/11 07:56:57;;;;;;;7.53;1.90;;;16.20;99.90;;;;;;5028731;28;20209;-71
2022/07/11 07:59:25;;;;;;;8.10;1.97;;;16.30;99.90;;;;;;5048223;28;20254;-71
2022/07/11 08:01:51;;;;;;;3.90;1.80;;;16.40;99.90;;;;;;5048634;28;20211;-71
2022/07/11 08:04:19;;;;;;;5.77;1.83;;;16.40;99.90;;;;;;5048508;28;20231;-71
2022/07/11 08:06:46;;;;;;;8.03;2.13;;;16.50;99.90;;;;;;5028365;28;20209;-71
2022/07/11 08:09:12;;;;;;;6.87;2.10;;;16.60;99.90;;;;;;5028733;28;20243;-71
2022/07/11 08:11:39;;;;;;;3.67;2.00;;;16.70;99.90;;;;;;5028451;28;20212;-71
2022/07/11 08:14:08;;;;;;;3.10;1.67;;;16.80;99.90;;;;;;5028217;28;20209;-71
2022/07/11 08:16:37;;;;;;;6.33;2.20;;;16.80;99.90;;;;;;5028243;28;20209;-70
2022/07/11 08:19:05;;;;;;;6.57;1.90;;;16.90;99.90;;;;;;5028362;28;20244;-70
2022/07/11 08:21:33;;;;;;;6.23;1.93;;;16.90;99.90;;;;;;5045372;28;20206;-70
2022/07/11 08:24:00;;;;;;;6.97;1.77;;;17.00;99.90;;;;;;5036586;28;20208;-71
2022/07/11 08:26:27;;;;;;;5.97;2.00;;;17.00;99.90;;;;;;5027702;28;20271;-70
2022/07/11 08:28:54;;;;;;;3.87;1.80;;;17.10;99.90;;;;;;5029139;28;20208;-71
2022/07/11 08:31:24;;;;;;;2.53;1.57;;;17.10;99.90;;;;;;5040908;28;20244;-71
2022/07/11 08:33:52;;;;;;;5.93;1.90;;;17.20;99.90;;;;;;5027575;28;20215;-71
2022/07/11 08:36:19;;;;;;;5.13;1.87;;;17.20;99.90;;;;;;5028473;28;20235;-71
2022/07/11 08:38:47;;;;;;;4.10;2.17;;;17.30;99.90;;;;;;5047754;28;20218;-71
2022/07/11 08:41:16;;;;;;;6.60;2.03;;;17.40;99.90;;;;;;5047755;28;20204;-71
2022/07/11 08:43:44;;;;;;;8.97;1.77;;;17.40;99.90;;;;;;5047555;28;20294;-71
2022/07/11 08:46:11;;;;;;;5.33;1.67;;;17.50;99.90;;;;;;5047725;28;20228;-71
2022/07/11 08:48:40;;;;;;;5.10;1.83;;;17.50;99.90;;;;;;5047353;28;20230;-71
2022/07/11 08:51:09;;;;;;;6.10;2.07;;;17.60;99.90;;;;;;5047323;28;20591;-71
2022/07/11 08:53:41;;;;;;;6.57;1.70;;;17.70;99.90;;;;;;5041209;28;20212;-71
2022/07/11 08:56:14;;;;;;;5.90;1.93;;;17.70;99.90;;;;;;5047543;28;20251;-71
2022/07/11 08:58:46;;;;;;;5.90;1.80;;;17.80;99.90;;;;;;5047469;28;20223;-71
2022/07/11 09:01:17;;;;;;;6.67;2.17;;;17.90;99.90;;;;;;5046994;28;20205;-71
2022/07/11 09:03:44;;;;;;;4.23;1.97;;;18.00;99.90;;;;;;5047412;28;20343;-71
2022/07/11 09:06:13;;;;;;;8.50;1.70;;;18.10;99.90;;;;;;5047266;28;20616;-71
2022/07/11 09:08:40;;;;;;;3.97;1.40;;;18.20;99.90;;;;;;5047244;28;20208;-71
2022/07/11 09:11:07;;;;;;;6.53;1.70;;;18.20;99.90;;;;;;5047049;28;20775;-71
2022/07/11 09:13:34;;;;;;;6.17;1.50;;;18.30;99.90;;;;;;5047246;28;20299;-71
2022/07/11 09:16:10;;;;;;;5.17;2.00;;;18.30;99.90;;;;;;5047347;28;20216;-71
2022/07/11 09:18:38;;;;;;;4.93;1.63;;;18.20;99.90;;;;;;5047284;28;20238;-71
2022/07/11 09:26:41;;;;;;;5.23;1.80;;;18.40;99.90;;;;;;5035487;28;20219;-71
2022/07/11 09:29:09;;;;;;;8.20;2.23;;;18.60;99.90;;;;;;5030140;28;20700;-71
2022/07/11 09:31:38;;;;;;;3.97;1.90;;;18.50;99.90;;;;;;5046917;28;20279;-71
2022/07/11 09:34:08;;;;;;;2.03;1.20;;;18.60;99.90;;;;;;5047218;28;20678;-70
2022/07/11 09:36:40;;;;;;;3.80;1.57;;;18.70;99.90;;;;;;5046610;28;20192;-72
2022/07/11 09:39:10;;;;;;;4.33;1.30;;;18.70;99.90;;;;;;5047006;28;20568;-70
2022/07/11 09:41:39;;;;;;;5.00;1.43;;;18.80;99.90;;;;;;5047000;28;20208;-71
2022/07/11 09:44:13;;;;;;;5.27;1.50;;;18.80;99.90;;;;;;5047938;28;20199;-71
2022/07/11 09:46:41;;;;;;;3.47;1.60;;;18.90;99.90;;;;;;5051069;28;20241;-71
2022/07/11 09:49:08;;;;;;;5.90;1.77;;;19.00;99.90;;;;;;5050911;28;20212;-70
2022/07/11 09:51:36;;;;;;;4.80;1.93;;;19.00;99.90;;;;;;5050246;28;20208;-71
2022/07/11 09:54:05;;;;;;;2.93;1.30;;;19.20;99.90;;;;;;5050906;28;20239;-71
2022/07/11 09:56:40;;;;;;;3.13;1.10;;;19.20;99.90;;;;;;5050469;28;20286;-71
2022/07/11 09:59:09;;;;;;;3.20;1.17;;;19.30;99.90;;;;;;5031532;28;20215;-71
2022/07/11 10:01:36;;;;;;;3.83;1.30;;;19.30;99.90;;;;;;5030704;28;20295;-71
2022/07/11 10:04:04;;;;;;;3.73;1.60;;;19.50;99.90;;;;;;5030827;28;20227;-71
2022/07/11 10:06:30;;;;;;;3.70;1.23;;;19.60;99.90;;;;;;5030481;28;20824;-70
2022/07/11 10:08:57;;;;;;;5.07;1.53;;;19.70;99.90;;;;;;5030464;28;20212;-71
2022/07/11 10:11:24;;;;;;;6.50;1.20;;;19.60;99.90;;;;;;5030688;28;20239;-71
2022/07/11 10:13:53;;;;;;;3.43;1.23;;;19.60;99.90;;;;;;5030644;28;20216;-71
2022/07/11 10:16:28;;;;;;;2.70;1.47;;;19.60;99.90;;;;;;5030208;28;20679;-70
2022/07/11 10:19:09;;;;;;;4.53;1.37;;;19.70;99.90;;;;;;5030500;28;20192;-70
2022/07/11 10:21:42;;;;;;;2.30;1.33;;;19.90;99.90;;;;;;5029889;28;20197;-70
2022/07/11 10:24:23;;;;;;;3.00;1.17;;;20.00;99.90;;;;;;5033730;28;20221;-71
2022/07/11 10:27:00;;;;;;;2.77;1.20;;;20.00;99.90;;;;;;5030241;28;20593;-71
2022/07/11 10:29:33;;;;;;;2.63;1.30;;;20.00;99.90;;;;;;5030232;28;20204;-70
2022/07/11 10:32:08;;;;;;;8.93;1.60;;;19.80;99.90;;;;;;5030096;28;20228;-70
2022/07/11 10:34:35;;;;;;;3.63;1.03;;;20.00;99.90;;;;;;5030329;28;20312;-70
2022/07/11 10:37:04;;;;;;;3.93;1.40;;;20.20;99.90;;;;;;5036241;28;20212;-70
2022/07/11 10:39:32;;;;;;;3.53;1.40;;;20.30;99.90;;;;;;5049831;28;20218;-70
2022/07/11 10:42:00;;;;;;;4.73;1.50;;;20.40;99.90;;;;;;5050179;28;20227;-71
2022/07/11 10:44:45;;;;;;;4.23;1.60;;;20.30;99.90;;;;;;5049896;28;20207;-71
2022/07/11 10:47:35;;;;;;;11.23;1.43;;;20.30;99.90;;;;;;5049272;28;20649;-70
2022/07/11 10:50:08;;;;;;;13.40;1.50;;;20.10;99.90;;;;;;5050002;28;20200;-71
2022/07/11 10:52:37;;;;;;;2.13;1.03;;;20.10;99.90;;;;;;5049532;28;20614;-71
2022/07/11 10:55:17;;;;;;;3.17;1.00;;;20.20;99.90;;;;;;5045921;28;20232;-70
2022/07/11 10:57:52;;;;;;;3.53;1.07;;;20.40;99.90;;;;;;5049300;28;20192;-71
2022/07/11 11:00:22;;;;;;;3.33;1.40;;;20.50;99.90;;;;;;5049780;28;20192;-70
2022/07/11 11:03:02;;;;;;;2.13;1.10;;;20.60;99.90;;;;;;5049444;28;20274;-71
2022/07/11 11:05:47;;;;;;;3.07;1.30;;;20.70;99.90;;;;;;5048883;28;20712;-71
2022/07/11 11:08:43;;;;;;;6.27;1.40;;;20.90;99.90;;;;;;5049304;28;20257;-71
2022/07/11 11:11:37;;;;;;;3.03;1.03;;;21.00;99.90;;;;;;5049457;28;20204;-71
2022/07/11 11:14:23;;;;;;;3.07;1.00;;;21.20;99.90;;;;;;5049262;28;20196;-71
2022/07/11 11:16:52;;;;;;;3.37;1.13;;;21.40;99.90;;;;;;5049057;28;20666;-71
2022/07/11 11:19:53;;;;;;;2.00;1.00;;;21.60;99.90;;;;;;5039271;28;20201;-71
2022/07/11 11:22:21;;;;;;;1.23;0.93;;;21.70;99.90;;;;;;5029128;28;20278;-70
2022/07/11 11:24:50;;;;;;;3.30;1.20;;;21.90;99.90;;;;;;5047306;28;20212;-71
2022/07/11 11:27:19;;;;;;;3.20;1.00;;;22.00;99.90;;;;;;5049340;28;20715;-71
2022/07/11 11:29:46;;;;;;;4.77;1.20;;;22.10;99.90;;;;;;5048782;28;20234;-71
2022/07/11 11:32:14;;;;;;;1.60;1.00;;;22.20;99.90;;;;;;5048551;28;20240;-71
2022/07/11 11:34:42;;;;;;;2.97;1.10;;;22.30;99.90;;;;;;5049078;28;20209;-71
2022/07/11 11:37:09;;;;;;;3.17;1.15;;;22.40;99.90;;;;;;5048647;28;20582;-69
2022/07/11 11:39:38;;;;;;;4.47;1.38;;;22.50;99.10;;;;;;5048796;28;20204;-70
2022/07/11 11:42:08;;;;;;;1.95;0.80;;;22.70;98.30;;;;;;5048698;28;20204;-69
2022/07/11 11:44:47;;;;;;;1.75;1.00;;;22.80;98.30;;;;;;5048785;28;20200;-69
2022/07/11 11:47:15;;;;;;;1.35;0.88;;;22.90;97.90;;;;;;5048604;28;20246;-70
2022/07/11 11:49:43;;;;;;;1.50;1.20;;;22.70;98.20;;;;;;5048464;28;20220;-69
2022/07/11 11:52:10;;;;;;;2.13;1.30;;;22.60;98.70;;;;;;5048327;28;20219;-69
2022/07/11 11:54:39;;;;;;;2.45;0.98;;;22.40;98.40;;;;;;5048263;28;20733;-69
2022/07/11 11:57:07;;;;;;;2.43;1.03;;;22.30;98.80;;;;;;5048506;28;20204;-70
2022/07/11 11:59:34;;;;;;;2.67;1.25;;;22.10;99.20;;;;;;5048569;28;20205;-71
2022/07/11 12:02:01;;;;;;;2.45;1.17;;;22.20;99.90;;;;;;5048300;28;20575;-70
2022/07/11 12:04:33;;;;;;;2.20;1.02;;;22.40;98.90;;;;;;5048186;28;20673;-70
2022/07/11 12:07:02;;;;;;;3.45;1.30;;;22.50;98.50;;;;;;5048007;28;20219;-70
2022/07/11 12:09:49;;;;;;;2.22;1.00;;;22.50;98.50;;;;;;5048435;28;20211;-70
2022/07/11 12:15:04;;;;;;;5.88;0.90;;;23.10;97.20;;;;;;5048061;28;20674;-70
2022/07/11 12:17:31;;;;;;;4.07;1.30;;;23.00;97.00;;;;;;5047786;28;20218;-70
2022/07/11 12:19:59;;;;;;;2.80;1.20;;;22.90;97.40;;;;;;5048085;28;20215;-70
2022/07/11 12:22:27;;;;;;;1.48;1.08;;;22.50;97.80;;;;;;5047989;28;20204;-70
2022/07/11 12:24:55;;;;;;;2.63;0.90;;;22.30;97.80;;;;;;5029119;28;20620;-70
2022/07/11 12:27:23;;;;;;;5.32;1.42;;;22.20;98.40;;;;;;5028040;28;20256;-71
2022/07/11 12:29:51;;;;;;;1.33;0.90;;;22.40;98.80;;;;;;5037138;28;20297;-71
2022/07/11 12:32:19;;;;;;;1.65;0.93;;;22.70;97.90;;;;;;5047820;28;20243;-71
2022/07/11 12:34:47;;;;;;;8.68;1.48;;;23.10;97.30;;;;;;5048225;28;20208;-71
2022/07/11 12:37:17;;;;;;;2.72;1.20;;;23.20;96.90;;;;;;5047718;28;20215;-71
2022/07/11 12:39:51;;;;;;;2.25;1.00;;;23.30;97.30;;;;;;5047870;28;20269;-71
2022/07/11 12:42:25;;;;;;;2.33;0.70;;;23.30;96.60;;;;;;5047962;28;20192;-71
2022/07/11 12:45:00;;;;;;;1.25;0.93;;;23.40;96.20;;;;;;5047908;28;20211;-71
2022/07/11 12:47:28;;;;;;;2.20;0.88;;;23.70;95.20;;;;;;5047749;28;20325;-71
2022/07/11 12:49:55;;;;;;;2.65;0.82;;;23.80;95.60;;;;;;5047842;28;20218;-71
2022/07/11 12:52:23;;;;;;;2.40;1.00;;;24.10;95.30;;;;;;5047657;28;20200;-71
2022/07/11 12:54:52;;;;;;;2.13;0.90;;;24.20;94.80;;;;;;5047524;28;20231;-71
2022/07/11 12:57:22;;;;;;;1.67;0.98;;;24.10;94.90;;;;;;5047793;28;20208;-71
2022/07/11 12:59:49;;;;;;;1.65;1.20;;;24.00;95.30;;;;;;5047306;28;20572;-71
2022/07/11 13:02:16;;;;;;;4.18;1.00;;;23.80;95.70;;;;;;5047424;28;20212;-71